sensor_id;sensor_type;location;lat;lon;timestamp;temperature;humidity
30385;DHT22;17181;51.002;4.096;2023-09-18T01:34:28;20.90;99.90
30385;DHT22;17181;51.002;4.096;2023-09-18T01:36:58;20.80;99.90
30385;DHT22;17181;51.002;4.096;2023-09-18T01:39:57;20.90;99.90
30385;DHT22;17181;51.002;4.096;2023-09-18T01:42:30;20.90;99.90
30385;DHT22;17181;51.002;4.096;2023-09-18T01:45:13;20.80;99.90
30385;DHT22;17181;51.002;4.096;2023-09-18T01:47:45;20.80;99.90
30385;DHT22;17181;51.002;4.096;2023-09-18T01:50:11;20.80;99.90
30385;DHT22;17181;51.002;4.096;2023-09-18T01:52:38;20.90;99.90
30385;DHT22;17181;51.002;4.096;2023-09-18T01:55:05;20.80;99.90
30385;DHT22;17181;51.002;4.096;2023-09-18T01:57:38;20.90;99.90
30385;DHT22;17181;51.002;4.096;2023-09-18T02:00:04;21.00;99.90
30385;DHT22;17181;51.002;4.096;2023-09-18T02:02:38;21.00;99.90
30385;DHT22;17181;51.002;4.096;2023-09-18T02:05:04;21.00;99.90
30385;DHT22;17181;51.002;4.096;2023-09-18T02:07:31;21.10;99.90
30385;DHT22;17181;51.002;4.096;2023-09-18T02:09:57;21.00;99.90
30385;DHT22;17181;51.002;4.096;2023-09-18T02:12:23;21.20;99.90
30385;DHT22;17181;51.002;4.096;2023-09-18T02:14:49;21.00;99.90
30385;DHT22;17181;51.002;4.096;2023-09-18T02:17:16;21.00;99.90
30385;DHT22;17181;51.002;4.096;2023-09-18T02:19:42;21.00;99.90
30385;DHT22;17181;51.002;4.096;2023-09-18T02:22:08;21.00;99.90
30385;DHT22;17181;51.002;4.096;2023-09-18T02:24:35;21.00;99.90
30385;DHT22;17181;51.002;4.096;2023-09-18T02:27:03;21.00;99.90
30385;DHT22;17181;51.002;4.096;2023-09-18T02:29:29;21.00;99.90
30385;DHT22;17181;51.002;4.096;2023-09-18T02:31:55;21.00;99.90
30385;DHT22;17181;51.002;4.096;2023-09-18T02:34:21;21.00;99.90
30385;DHT22;17181;51.002;4.096;2023-09-18T02:36:46;21.00;99.90
30385;DHT22;17181;51.002;4.096;2023-09-18T02:39:13;21.00;99.90
30385;DHT22;17181;51.002;4.096;2023-09-18T02:41:39;21.00;99.90
30385;DHT22;17181;51.002;4.096;2023-09-18T02:44:04;21.10;99.90
30385;DHT22;17181;51.002;4.096;2023-09-18T02:46:30;21.10;99.90
30385;DHT22;17181;51.002;4.096;2023-09-18T02:48:56;21.00;99.90
30385;DHT22;17181;51.002;4.096;2023-09-18T02:51:22;21.10;99.90
30385;DHT22;17181;51.002;4.096;2023-09-18T02:53:49;21.10;99.90
30385;DHT22;17181;51.002;4.096;2023-09-18T02:56:15;21.00;99.90
30385;DHT22;17181;51.002;4.096;2023-09-18T02:58:41;21.00;99.90
30385;DHT22;17181;51.002;4.096;2023-09-18T03:01:07;21.00;99.90
30385;DHT22;17181;51.002;4.096;2023-09-18T03:03:34;20.90;99.90
30385;DHT22;17181;51.002;4.096;2023-09-18T03:06:01;21.10;99.90
30385;DHT22;17181;51.002;4.096;2023-09-18T03:08:28;21.00;99.90
30385;DHT22;17181;51.002;4.096;2023-09-18T03:10:54;21.00;99.90
30385;DHT22;17181;51.002;4.096;2023-09-18T03:13:22;20.90;99.90
30385;DHT22;17181;51.002;4.096;2023-09-18T03:15:48;20.90;99.90
30385;DHT22;17181;51.002;4.096;2023-09-18T03:18:14;20.90;99.90
30385;DHT22;17181;51.002;4.096;2023-09-18T03:20:42;20.90;99.90
30385;DHT22;17181;51.002;4.096;2023-09-18T03:23:08;20.90;99.90
30385;DHT22;17181;51.002;4.096;2023-09-18T03:25:35;20.90;99.90
30385;DHT22;17181;51.002;4.096;2023-09-18T03:28:03;20.80;99.90
30385;DHT22;17181;51.002;4.096;2023-09-18T03:30:32;20.90;99.90
30385;DHT22;17181;51.002;4.096;2023-09-18T03:32:58;20.80;99.90
30385;DHT22;17181;51.002;4.096;2023-09-18T03:35:25;20.80;99.90
30385;DHT22;17181;51.002;4.096;2023-09-18T03:37:52;20.80;99.90
30385;DHT22;17181;51.002;4.096;2023-09-18T03:40:22;20.70;99.90
30385;DHT22;17181;51.002;4.096;2023-09-18T03:42:48;20.70;99.90
30385;DHT22;17181;51.002;4.096;2023-09-18T03:45:18;20.70;99.90
30385;DHT22;17181;51.002;4.096;2023-09-18T03:47:50;20.60;99.90
30385;DHT22;17181;51.002;4.096;2023-09-18T03:50:19;20.60;99.90
30385;DHT22;17181;51.002;4.096;2023-09-18T03:52:45;20.60;99.90
30385;DHT22;17181;51.002;4.096;2023-09-18T03:55:12;20.50;99.90
30385;DHT22;17181;51.002;4.096;2023-09-18T03:57:38;20.60;99.90
30385;DHT22;17181;51.002;4.096;2023-09-18T04:00:05;20.50;99.90
30385;DHT22;17181;51.002;4.096;2023-09-18T04:02:43;20.50;99.90
30385;DHT22;17181;51.002;4.096;2023-09-18T04:05:09;20.40;99.90
30385;DHT22;17181;51.002;4.096;2023-09-18T04:07:36;20.50;99.90
30385;DHT22;17181;51.002;4.096;2023-09-18T04:10:02;20.40;99.90
30385;DHT22;17181;51.002;4.096;2023-09-18T04:12:29;20.30;99.90
30385;DHT22;17181;51.002;4.096;2023-09-18T04:14:55;20.60;99.90
30385;DHT22;17181;51.002;4.096;2023-09-18T04:17:22;20.40;99.90
30385;DHT22;17181;51.002;4.096;2023-09-18T04:19:47;20.40;99.90
30385;DHT22;17181;51.002;4.096;2023-09-18T04:22:14;20.40;99.90
30385;DHT22;17181;51.002;4.096;2023-09-18T04:24:42;20.30;99.90
30385;DHT22;17181;51.002;4.096;2023-09-18T04:27:09;20.40;99.90
30385;DHT22;17181;51.002;4.096;2023-09-18T04:29:56;20.40;99.90
30385;DHT22;17181;51.002;4.096;2023-09-18T04:32:24;20.40;99.90
30385;DHT22;17181;51.002;4.096;2023-09-18T04:34:51;20.40;99.90
30385;DHT22;17181;51.002;4.096;2023-09-18T04:37:17;20.30;99.90
30385;DHT22;17181;51.002;4.096;2023-09-18T04:39:43;20.30;99.90
30385;DHT22;17181;51.002;4.096;2023-09-18T04:42:09;20.30;99.90
30385;DHT22;17181;51.002;4.096;2023-09-18T04:44:35;20.40;99.90
30385;DHT22;17181;51.002;4.096;2023-09-18T04:47:03;20.30;99.90
30385;DHT22;17181;51.002;4.096;2023-09-18T04:49:29;20.30;99.90
30385;DHT22;17181;51.002;4.096;2023-09-18T04:51:55;20.30;99.90
30385;DHT22;17181;51.002;4.096;2023-09-18T04:54:22;20.20;99.90
30385;DHT22;17181;51.002;4.096;2023-09-18T04:56:48;20.30;99.90
30385;DHT22;17181;51.002;4.096;2023-09-18T04:59:14;20.30;99.90
30385;DHT22;17181;51.002;4.096;2023-09-18T05:01:41;20.20;99.90
30385;DHT22;17181;51.002;4.096;2023-09-18T05:04:08;20.20;99.90
30385;DHT22;17181;51.002;4.096;2023-09-18T05:06:34;20.20;99.90
30385;DHT22;17181;51.002;4.096;2023-09-18T05:09:00;20.20;99.90
30385;DHT22;17181;51.002;4.096;2023-09-18T05:11:26;20.20;99.90
30385;DHT22;17181;51.002;4.096;2023-09-18T05:13:52;20.20;99.90
30385;DHT22;17181;51.002;4.096;2023-09-18T05:16:18;20.20;99.90
30385;DHT22;17181;51.002;4.096;2023-09-18T05:18:44;20.10;99.90
30385;DHT22;17181;51.002;4.096;2023-09-18T05:21:10;20.10;99.90
30385;DHT22;17181;51.002;4.096;2023-09-18T05:23:36;20.10;99.90
30385;DHT22;17181;51.002;4.096;2023-09-18T05:26:02;20.10;99.90
30385;DHT22;17181;51.002;4.096;2023-09-18T05:28:28;20.10;99.90
30385;DHT22;17181;51.002;4.096;2023-09-18T05:30:54;20.00;99.90
30385;DHT22;17181;51.002;4.096;2023-09-18T05:33:20;20.00;99.90
30385;DHT22;17181;51.002;4.096;2023-09-18T05:35:46;20.10;99.90
30385;DHT22;17181;51.002;4.096;2023-09-18T05:38:13;20.00;99.90
30385;DHT22;17181;51.002;4.096;2023-09-18T05:40:39;20.00;99.90
30385;DHT22;17181;51.002;4.096;2023-09-18T05:43:05;19.90;99.90
30385;DHT22;17181;51.002;4.096;2023-09-18T05:45:31;19.90;99.90
30385;DHT22;17181;51.002;4.096;2023-09-18T05:47:59;19.90;99.90
30385;DHT22;17181;51.002;4.096;2023-09-18T05:50:30;19.90;99.90
30385;DHT22;17181;51.002;4.096;2023-09-18T05:52:58;19.90;99.90
30385;DHT22;17181;51.002;4.096;2023-09-18T05:55:30;19.90;99.90
30385;DHT22;17181;51.002;4.096;2023-09-18T05:57:56;19.90;99.90
30385;DHT22;17181;51.002;4.096;2023-09-18T06:00:23;19.80;99.90
30385;DHT22;17181;51.002;4.096;2023-09-18T06:02:49;19.80;99.90
30385;DHT22;17181;51.002;4.096;2023-09-18T06:05:17;19.80;99.90
30385;DHT22;17181;51.002;4.096;2023-09-18T06:07:47;19.80;99.90
30385;DHT22;17181;51.002;4.096;2023-09-18T06:10:13;19.80;99.90
30385;DHT22;17181;51.002;4.096;2023-09-18T06:12:39;19.80;99.90
30385;DHT22;17181;51.002;4.096;2023-09-18T06:15:09;19.70;99.90
30385;DHT22;17181;51.002;4.096;2023-09-18T06:17:42;19.70;99.90
30385;DHT22;17181;51.002;4.096;2023-09-18T06:20:09;19.70;99.90
30385;DHT22;17181;51.002;4.096;2023-09-18T06:22:37;19.70;99.90
30385;DHT22;17181;51.002;4.096;2023-09-18T06:25:05;19.70;99.90
30385;DHT22;17181;51.002;4.096;2023-09-18T06:27:33;19.70;99.90
30385;DHT22;17181;51.002;4.096;2023-09-18T06:30:06;19.70;99.90
30385;DHT22;17181;51.002;4.096;2023-09-18T06:32:33;19.60;99.90
30385;DHT22;17181;51.002;4.096;2023-09-18T06:35:03;19.50;99.90
30385;DHT22;17181;51.002;4.096;2023-09-18T06:37:29;19.60;99.90
30385;DHT22;17181;51.002;4.096;2023-09-18T06:39:57;19.80;99.90
30385;DHT22;17181;51.002;4.096;2023-09-18T06:42:23;19.60;99.90
30385;DHT22;17181;51.002;4.096;2023-09-18T06:45:00;19.50;99.90
30385;DHT22;17181;51.002;4.096;2023-09-18T06:47:28;19.60;99.90
30385;DHT22;17181;51.002;4.096;2023-09-18T06:49:54;19.70;99.90
30385;DHT22;17181;51.002;4.096;2023-09-18T06:52:51;19.50;99.90
30385;DHT22;17181;51.002;4.096;2023-09-18T06:55:17;19.50;99.90
30385;DHT22;17181;51.002;4.096;2023-09-18T06:57:53;19.50;99.90
30385;DHT22;17181;51.002;4.096;2023-09-18T07:00:22;19.60;99.90
30385;DHT22;17181;51.002;4.096;2023-09-18T07:02:57;19.40;99.90
30385;DHT22;17181;51.002;4.096;2023-09-18T07:05:26;19.60;99.90
30385;DHT22;17181;51.002;4.096;2023-09-18T07:07:53;19.60;99.90
30385;DHT22;17181;51.002;4.096;2023-09-18T07:10:21;19.60;99.90
30385;DHT22;17181;51.002;4.096;2023-09-18T07:12:47;19.60;99.90
30385;DHT22;17181;51.002;4.096;2023-09-18T07:15:17;19.60;99.90
30385;DHT22;17181;51.002;4.096;2023-09-18T07:17:43;19.70;99.90
30385;DHT22;17181;51.002;4.096;2023-09-18T07:20:12;19.70;99.90
30385;DHT22;17181;51.002;4.096;2023-09-18T07:22:46;19.60;99.90
30385;DHT22;17181;51.002;4.096;2023-09-18T07:25:13;19.80;99.90
30385;DHT22;17181;51.002;4.096;2023-09-18T07:27:39;19.90;99.90
30385;DHT22;17181;51.002;4.096;2023-09-18T07:30:11;19.90;99.90
30385;DHT22;17181;51.002;4.096;2023-09-18T07:32:39;20.00;99.90
30385;DHT22;17181;51.002;4.096;2023-09-18T07:35:12;19.90;99.90
30385;DHT22;17181;51.002;4.096;2023-09-18T07:37:41;20.10;99.90
30385;DHT22;17181;51.002;4.096;2023-09-18T07:40:14;20.20;99.90
30385;DHT22;17181;51.002;4.096;2023-09-18T07:42:42;20.20;99.90
30385;DHT22;17181;51.002;4.096;2023-09-18T07:45:37;20.10;99.90
30385;DHT22;17181;51.002;4.096;2023-09-18T10:25:10;20.50;99.90
30385;DHT22;17181;51.002;4.096;2023-09-18T10:27:40;20.60;99.90
30385;DHT22;17181;51.002;4.096;2023-09-18T10:30:09;20.50;99.90
30385;DHT22;17181;51.002;4.096;2023-09-18T10:32:46;20.40;99.90
30385;DHT22;17181;51.002;4.096;2023-09-18T10:35:19;20.60;99.90
30385;DHT22;17181;51.002;4.096;2023-09-18T10:37:59;20.70;99.90
30385;DHT22;17181;51.002;4.096;2023-09-18T10:40:26;20.70;99.90
30385;DHT22;17181;51.002;4.096;2023-09-18T10:42:54;20.80;99.90
30385;DHT22;17181;51.002;4.096;2023-09-18T10:45:25;20.90;99.90
30385;DHT22;17181;51.002;4.096;2023-09-18T10:47:53;21.20;99.90
30385;DHT22;17181;51.002;4.096;2023-09-18T10:50:26;21.20;99.90
30385;DHT22;17181;51.002;4.096;2023-09-18T10:52:52;21.20;99.90
30385;DHT22;17181;51.002;4.096;2023-09-18T13:09:17;24.10;99.90
30385;DHT22;17181;51.002;4.096;2023-09-18T13:11:58;24.10;99.90
30385;DHT22;17181;51.002;4.096;2023-09-18T13:14:28;24.20;99.90
30385;DHT22;17181;51.002;4.096;2023-09-18T13:17:01;24.20;99.90
30385;DHT22;17181;51.002;4.096;2023-09-18T13:19:35;24.30;99.90
30385;DHT22;17181;51.002;4.096;2023-09-18T13:22:10;24.40;99.60
30385;DHT22;17181;51.002;4.096;2023-09-18T13:24:36;24.40;99.70
30385;DHT22;17181;51.002;4.096;2023-09-18T13:27:04;24.50;99.40
30385;DHT22;17181;51.002;4.096;2023-09-18T13:29:33;24.60;99.00
30385;DHT22;17181;51.002;4.096;2023-09-18T13:32:17;24.70;98.60
30385;DHT22;17181;51.002;4.096;2023-09-18T13:34:43;24.60;98.60
30385;DHT22;17181;51.002;4.096;2023-09-18T13:37:12;24.60;98.70
30385;DHT22;17181;51.002;4.096;2023-09-18T13:39:41;24.60;98.30
30385;DHT22;17181;51.002;4.096;2023-09-18T13:42:13;24.70;98.20
30385;DHT22;17181;51.002;4.096;2023-09-18T13:44:39;24.80;96.60
30385;DHT22;17181;51.002;4.096;2023-09-18T13:47:22;24.70;95.90
30385;DHT22;17181;51.002;4.096;2023-09-18T13:49:51;24.50;95.80
30385;DHT22;17181;51.002;4.096;2023-09-18T14:12:12;21.50;99.90
30385;DHT22;17181;51.002;4.096;2023-09-18T14:14:45;20.30;99.90
30385;DHT22;17181;51.002;4.096;2023-09-18T14:17:12;19.60;99.90
30385;DHT22;17181;51.002;4.096;2023-09-18T14:19:38;19.10;99.90
30385;DHT22;17181;51.002;4.096;2023-09-18T14:22:05;19.00;99.90
30385;DHT22;17181;51.002;4.096;2023-09-18T14:24:32;19.10;99.90
30385;DHT22;17181;51.002;4.096;2023-09-18T14:27:03;19.50;99.90
30385;DHT22;17181;51.002;4.096;2023-09-18T14:29:30;20.10;99.90
30385;DHT22;17181;51.002;4.096;2023-09-18T14:32:01;20.50;99.90
30385;DHT22;17181;51.002;4.096;2023-09-18T14:34:28;20.70;99.90
30385;DHT22;17181;51.002;4.096;2023-09-18T14:36:56;20.70;99.90
30385;DHT22;17181;51.002;4.096;2023-09-18T14:39:22;20.50;99.90
30385;DHT22;17181;51.002;4.096;2023-09-18T14:41:48;20.30;99.90
30385;DHT22;17181;51.002;4.096;2023-09-18T14:44:15;20.10;99.90
30385;DHT22;17181;51.002;4.096;2023-09-18T14:46:40;20.00;99.90
30385;DHT22;17181;51.002;4.096;2023-09-18T14:49:07;19.90;99.90
30385;DHT22;17181;51.002;4.096;2023-09-18T14:51:34;19.80;99.90
30385;DHT22;17181;51.002;4.096;2023-09-18T14:54:01;19.80;99.90
30385;DHT22;17181;51.002;4.096;2023-09-18T14:56:27;19.80;99.90
30385;DHT22;17181;51.002;4.096;2023-09-18T14:58:53;19.90;99.90
30385;DHT22;17181;51.002;4.096;2023-09-18T15:01:23;20.30;99.90
30385;DHT22;17181;51.002;4.096;2023-09-18T15:03:51;21.00;99.90
30385;DHT22;17181;51.002;4.096;2023-09-18T15:06:17;22.00;99.90
30385;DHT22;17181;51.002;4.096;2023-09-18T15:08:46;22.90;99.90
30385;DHT22;17181;51.002;4.096;2023-09-18T15:11:14;23.70;99.90
30385;DHT22;17181;51.002;4.096;2023-09-18T15:13:43;23.90;99.90
30385;DHT22;17181;51.002;4.096;2023-09-18T15:16:09;24.00;99.90
30385;DHT22;17181;51.002;4.096;2023-09-18T15:18:35;23.80;99.90
30385;DHT22;17181;51.002;4.096;2023-09-18T15:21:02;23.50;99.90
30385;DHT22;17181;51.002;4.096;2023-09-18T15:23:28;23.00;99.90
30385;DHT22;17181;51.002;4.096;2023-09-18T15:25:55;22.50;99.90
30385;DHT22;17181;51.002;4.096;2023-09-18T15:28:24;22.10;99.90
30385;DHT22;17181;51.002;4.096;2023-09-18T15:30:53;21.80;99.90
30385;DHT22;17181;51.002;4.096;2023-09-18T15:33:20;21.80;99.90
30385;DHT22;17181;51.002;4.096;2023-09-18T15:35:52;21.90;99.90
30385;DHT22;17181;51.002;4.096;2023-09-18T15:38:21;22.10;99.90
30385;DHT22;17181;51.002;4.096;2023-09-18T15:40:47;22.60;99.90
30385;DHT22;17181;51.002;4.096;2023-09-18T15:43:14;23.40;99.90
30385;DHT22;17181;51.002;4.096;2023-09-18T15:45:40;24.00;99.90
30385;DHT22;17181;51.002;4.096;2023-09-18T15:48:07;24.60;99.90
30385;DHT22;17181;51.002;4.096;2023-09-18T15:50:33;25.00;99.90
30385;DHT22;17181;51.002;4.096;2023-09-18T15:52:59;25.20;99.90
30385;DHT22;17181;51.002;4.096;2023-09-18T15:55:26;24.90;99.90
30385;DHT22;17181;51.002;4.096;2023-09-18T15:57:52;24.60;99.90
30385;DHT22;17181;51.002;4.096;2023-09-18T16:00:19;24.10;99.90
30385;DHT22;17181;51.002;4.096;2023-09-18T16:02:45;23.60;99.90
30385;DHT22;17181;51.002;4.096;2023-09-18T16:05:11;23.30;99.90
30385;DHT22;17181;51.002;4.096;2023-09-18T16:07:37;23.00;99.90
30385;DHT22;17181;51.002;4.096;2023-09-18T16:10:06;22.80;99.90
30385;DHT22;17181;51.002;4.096;2023-09-18T16:12:33;22.60;99.90
30385;DHT22;17181;51.002;4.096;2023-09-18T16:15:00;22.60;99.90
30385;DHT22;17181;51.002;4.096;2023-09-18T16:17:26;22.60;99.90
30385;DHT22;17181;51.002;4.096;2023-09-18T16:19:52;22.60;99.90
30385;DHT22;17181;51.002;4.096;2023-09-18T16:22:21;22.60;99.90
30385;DHT22;17181;51.002;4.096;2023-09-18T16:24:47;22.50;99.90
30385;DHT22;17181;51.002;4.096;2023-09-18T16:27:12;22.40;99.90
30385;DHT22;17181;51.002;4.096;2023-09-18T16:29:40;22.30;99.90
30385;DHT22;17181;51.002;4.096;2023-09-18T16:32:06;22.10;99.90
30385;DHT22;17181;51.002;4.096;2023-09-18T16:34:35;21.90;99.90
30385;DHT22;17181;51.002;4.096;2023-09-18T16:37:02;21.80;99.90
30385;DHT22;17181;51.002;4.096;2023-09-18T16:39:29;21.70;99.90
30385;DHT22;17181;51.002;4.096;2023-09-18T16:41:55;21.60;99.90
30385;DHT22;17181;51.002;4.096;2023-09-18T16:44:22;21.50;99.90
30385;DHT22;17181;51.002;4.096;2023-09-18T16:46:48;21.40;99.90
30385;DHT22;17181;51.002;4.096;2023-09-18T16:49:14;21.40;99.90
30385;DHT22;17181;51.002;4.096;2023-09-18T16:51:43;21.40;99.90
30385;DHT22;17181;51.002;4.096;2023-09-18T16:54:09;21.40;99.90
30385;DHT22;17181;51.002;4.096;2023-09-18T16:56:35;21.30;99.90
30385;DHT22;17181;51.002;4.096;2023-09-18T16:59:02;21.30;99.90
30385;DHT22;17181;51.002;4.096;2023-09-18T17:01:28;21.20;99.90
30385;DHT22;17181;51.002;4.096;2023-09-18T17:03:54;21.10;99.90
30385;DHT22;17181;51.002;4.096;2023-09-18T17:06:20;21.20;99.90
30385;DHT22;17181;51.002;4.096;2023-09-18T17:08:47;21.30;99.90
30385;DHT22;17181;51.002;4.096;2023-09-18T17:11:14;21.20;99.90
30385;DHT22;17181;51.002;4.096;2023-09-18T17:13:42;21.20;99.90
30385;DHT22;17181;51.002;4.096;2023-09-18T17:16:08;21.10;99.90
30385;DHT22;17181;51.002;4.096;2023-09-18T17:18:34;21.10;99.90
30385;DHT22;17181;51.002;4.096;2023-09-18T17:21:00;21.10;99.90
30385;DHT22;17181;51.002;4.096;2023-09-18T17:23:26;21.00;99.90
30385;DHT22;17181;51.002;4.096;2023-09-18T17:25:53;20.90;99.90
30385;DHT22;17181;51.002;4.096;2023-09-18T17:28:19;20.80;99.90
30385;DHT22;17181;51.002;4.096;2023-09-18T17:30:45;20.80;99.90
30385;DHT22;17181;51.002;4.096;2023-09-18T17:33:11;20.70;99.90
30385;DHT22;17181;51.002;4.096;2023-09-18T17:35:38;20.80;99.90
30385;DHT22;17181;51.002;4.096;2023-09-18T17:38:04;20.70;99.90
30385;DHT22;17181;51.002;4.096;2023-09-18T17:40:30;20.70;99.90
30385;DHT22;17181;51.002;4.096;2023-09-18T17:42:56;20.60;99.90
30385;DHT22;17181;51.002;4.096;2023-09-18T17:45:23;20.60;99.90
30385;DHT22;17181;51.002;4.096;2023-09-18T17:47:52;20.50;99.90
30385;DHT22;17181;51.002;4.096;2023-09-18T17:50:18;20.40;99.90
30385;DHT22;17181;51.002;4.096;2023-09-18T17:52:44;20.50;99.90
30385;DHT22;17181;51.002;4.096;2023-09-18T17:55:10;20.40;99.90
30385;DHT22;17181;51.002;4.096;2023-09-18T17:57:37;20.30;99.90
30385;DHT22;17181;51.002;4.096;2023-09-18T18:00:08;20.30;99.90
30385;DHT22;17181;51.002;4.096;2023-09-18T18:02:41;20.30;99.90
30385;DHT22;17181;51.002;4.096;2023-09-18T18:05:11;20.20;99.90
30385;DHT22;17181;51.002;4.096;2023-09-18T18:07:41;20.10;99.90
30385;DHT22;17181;51.002;4.096;2023-09-18T18:10:07;20.10;99.90
30385;DHT22;17181;51.002;4.096;2023-09-18T18:12:41;20.00;99.90
30385;DHT22;17181;51.002;4.096;2023-09-18T18:15:12;20.00;99.90
30385;DHT22;17181;51.002;4.096;2023-09-18T18:17:39;20.00;99.90
30385;DHT22;17181;51.002;4.096;2023-09-18T18:20:06;19.80;99.90
30385;DHT22;17181;51.002;4.096;2023-09-18T18:22:38;19.80;99.90
30385;DHT22;17181;51.002;4.096;2023-09-18T18:25:26;19.80;99.90
30385;DHT22;17181;51.002;4.096;2023-09-18T18:27:51;19.70;99.90
30385;DHT22;17181;51.002;4.096;2023-09-18T18:30:17;19.70;99.90
30385;DHT22;17181;51.002;4.096;2023-09-18T18:32:46;19.60;99.90
30385;DHT22;17181;51.002;4.096;2023-09-18T18:35:12;19.60;99.90
30385;DHT22;17181;51.002;4.096;2023-09-18T18:37:43;19.50;99.90
30385;DHT22;17181;51.002;4.096;2023-09-18T18:40:11;19.40;99.90
30385;DHT22;17181;51.002;4.096;2023-09-18T18:42:42;19.30;99.90
30385;DHT22;17181;51.002;4.096;2023-09-18T18:45:08;19.30;99.90
30385;DHT22;17181;51.002;4.096;2023-09-18T18:47:34;19.30;99.90
30385;DHT22;17181;51.002;4.096;2023-09-18T18:50:01;19.20;99.90
30385;DHT22;17181;51.002;4.096;2023-09-18T18:52:27;19.20;99.90
30385;DHT22;17181;51.002;4.096;2023-09-18T18:54:56;19.20;99.90
30385;DHT22;17181;51.002;4.096;2023-09-18T18:57:30;19.20;99.90
30385;DHT22;17181;51.002;4.096;2023-09-18T18:59:56;19.10;99.90
30385;DHT22;17181;51.002;4.096;2023-09-18T19:02:23;19.10;99.90
30385;DHT22;17181;51.002;4.096;2023-09-18T19:04:51;19.00;99.90
30385;DHT22;17181;51.002;4.096;2023-09-18T19:07:18;19.00;99.90
30385;DHT22;17181;51.002;4.096;2023-09-18T20:27:35;17.80;99.90
30385;DHT22;17181;51.002;4.096;2023-09-18T20:30:07;17.80;99.90
30385;DHT22;17181;51.002;4.096;2023-09-18T20:32:33;17.80;99.90
30385;DHT22;17181;51.002;4.096;2023-09-18T20:35:01;17.90;99.90
30385;DHT22;17181;51.002;4.096;2023-09-18T20:37:27;17.70;99.90
30385;DHT22;17181;51.002;4.096;2023-09-18T20:39:53;17.70;99.90
30385;DHT22;17181;51.002;4.096;2023-09-18T20:42:22;17.70;99.90
30385;DHT22;17181;51.002;4.096;2023-09-18T20:44:50;17.80;99.90
30385;DHT22;17181;51.002;4.096;2023-09-18T20:47:16;17.70;99.90
30385;DHT22;17181;51.002;4.096;2023-09-18T20:49:46;17.70;99.90
30385;DHT22;17181;51.002;4.096;2023-09-18T20:52:14;17.70;99.90
30385;DHT22;17181;51.002;4.096;2023-09-18T20:54:41;17.80;99.90
30385;DHT22;17181;51.002;4.096;2023-09-18T20:57:08;17.70;99.90
30385;DHT22;17181;51.002;4.096;2023-09-18T20:59:38;17.60;99.90
30385;DHT22;17181;51.002;4.096;2023-09-18T21:02:07;17.60;99.90
30385;DHT22;17181;51.002;4.096;2023-09-18T21:04:36;17.60;99.90
30385;DHT22;17181;51.002;4.096;2023-09-18T21:07:13;17.80;99.90
30385;DHT22;17181;51.002;4.096;2023-09-18T21:09:40;17.60;99.90
30385;DHT22;17181;51.002;4.096;2023-09-18T21:12:07;17.60;99.90
30385;DHT22;17181;51.002;4.096;2023-09-18T21:14:33;17.60;99.90
30385;DHT22;17181;51.002;4.096;2023-09-18T21:17:00;17.50;99.90
30385;DHT22;17181;51.002;4.096;2023-09-18T21:19:37;17.70;99.90
30385;DHT22;17181;51.002;4.096;2023-09-18T21:22:06;17.50;99.90
30385;DHT22;17181;51.002;4.096;2023-09-18T21:24:41;17.60;99.90
30385;DHT22;17181;51.002;4.096;2023-09-18T21:27:13;17.50;99.90
30385;DHT22;17181;51.002;4.096;2023-09-18T21:30:13;17.50;99.90
30385;DHT22;17181;51.002;4.096;2023-09-18T21:32:42;17.60;99.90
30385;DHT22;17181;51.002;4.096;2023-09-18T21:35:14;17.40;99.90
30385;DHT22;17181;51.002;4.096;2023-09-18T21:37:46;17.50;99.90
30385;DHT22;17181;51.002;4.096;2023-09-18T21:40:33;17.50;99.90
30385;DHT22;17181;51.002;4.096;2023-09-18T21:43:06;17.50;99.90
30385;DHT22;17181;51.002;4.096;2023-09-18T21:45:50;17.50;99.90
30385;DHT22;17181;51.002;4.096;2023-09-18T21:51:23;17.50;99.90
30385;DHT22;17181;51.002;4.096;2023-09-18T21:53:50;17.40;99.90
30385;DHT22;17181;51.002;4.096;2023-09-18T21:56:28;17.40;99.90
30385;DHT22;17181;51.002;4.096;2023-09-18T21:58:55;17.40;99.90
30385;DHT22;17181;51.002;4.096;2023-09-18T22:01:24;17.40;99.90
30385;DHT22;17181;51.002;4.096;2023-09-18T22:03:54;17.50;99.90
30385;DHT22;17181;51.002;4.096;2023-09-18T22:06:23;17.40;99.90
30385;DHT22;17181;51.002;4.096;2023-09-18T22:08:51;17.50;99.90
30385;DHT22;17181;51.002;4.096;2023-09-18T22:11:19;17.30;99.90
30385;DHT22;17181;51.002;4.096;2023-09-18T22:13:51;17.30;99.90
30385;DHT22;17181;51.002;4.096;2023-09-18T22:16:26;17.30;99.90
30385;DHT22;17181;51.002;4.096;2023-09-18T22:18:53;17.30;99.90
30385;DHT22;17181;51.002;4.096;2023-09-18T22:21:19;17.30;99.90
30385;DHT22;17181;51.002;4.096;2023-09-18T22:23:45;17.20;99.90
30385;DHT22;17181;51.002;4.096;2023-09-18T22:26:18;17.30;99.90
30385;DHT22;17181;51.002;4.096;2023-09-18T22:29:10;17.20;99.90
30385;DHT22;17181;51.002;4.096;2023-09-18T22:31:41;17.20;99.90
30385;DHT22;17181;51.002;4.096;2023-09-18T22:34:26;17.20;99.90
30385;DHT22;17181;51.002;4.096;2023-09-18T22:54:47;17.00;99.90
30385;DHT22;17181;51.002;4.096;2023-09-18T22:57:16;17.00;99.90
30385;DHT22;17181;51.002;4.096;2023-09-18T22:59:46;16.90;99.90
30385;DHT22;17181;51.002;4.096;2023-09-18T23:02:14;16.90;99.90
30385;DHT22;17181;51.002;4.096;2023-09-18T23:04:41;16.90;99.90
30385;DHT22;17181;51.002;4.096;2023-09-18T23:07:08;16.90;99.90
30385;DHT22;17181;51.002;4.096;2023-09-18T23:09:34;17.00;99.90
30385;DHT22;17181;51.002;4.096;2023-09-18T23:12:00;16.90;99.90
30385;DHT22;17181;51.002;4.096;2023-09-18T23:14:31;16.90;99.90
30385;DHT22;17181;51.002;4.096;2023-09-18T23:17:08;16.80;99.90
30385;DHT22;17181;51.002;4.096;2023-09-18T23:19:41;16.80;99.90
30385;DHT22;17181;51.002;4.096;2023-09-18T23:22:11;16.70;99.90
30385;DHT22;17181;51.002;4.096;2023-09-18T23:24:45;16.70;99.90
30385;DHT22;17181;51.002;4.096;2023-09-18T23:27:15;16.80;99.90
30385;DHT22;17181;51.002;4.096;2023-09-18T23:29:42;16.70;99.90
30385;DHT22;17181;51.002;4.096;2023-09-18T23:32:08;16.60;99.90
30385;DHT22;17181;51.002;4.096;2023-09-18T23:34:39;16.60;99.90
30385;DHT22;17181;51.002;4.096;2023-09-18T23:37:07;16.40;99.90
30385;DHT22;17181;51.002;4.096;2023-09-18T23:39:35;16.60;99.90
30385;DHT22;17181;51.002;4.096;2023-09-18T23:42:04;16.50;99.90
30385;DHT22;17181;51.002;4.096;2023-09-18T23:44:30;16.40;99.90
30385;DHT22;17181;51.002;4.096;2023-09-18T23:47:01;16.40;99.90
30385;DHT22;17181;51.002;4.096;2023-09-18T23:49:29;16.40;99.90
30385;DHT22;17181;51.002;4.096;2023-09-18T23:52:02;16.40;99.90
30385;DHT22;17181;51.002;4.096;2023-09-18T23:54:31;16.20;99.90
30385;DHT22;17181;51.002;4.096;2023-09-18T23:57:02;16.40;99.90
30385;DHT22;17181;51.002;4.096;2023-09-18T23:59:37;16.50;99.90
